Time;durP1;ratioP1;P1;durP2;ratioP2;P2;SDS_P1;SDS_P2;PMS_P1;PMS_P2;Temp;Humidity;BMP_temperature;BMP_pressure;BME280_temperature;BME280_humidity;BME280_pressure;Samples;Min_cycle;Max_cycle;Signal;HPM_P1;HPM_P2
2022/07/15 00:01:36;;;;;;;2.92;1.90;;;;;;;13.64;66.52;93555.94;5105014;28;20039;-41
2022/07/15 00:04:02;;;;;;;2.00;1.48;;;;;;;14.03;65.86;93582.06;5090270;28;20084;-41
2022/07/15 00:06:27;;;;;;;1.70;1.50;;;;;;;14.04;65.90;93586.31;5090048;28;20032;-41
2022/07/15 00:08:53;;;;;;;2.28;1.77;;;;;;;13.72;66.93;93589.16;5089857;28;20035;-42
2022/07/15 00:11:18;;;;;;;5.03;1.90;;;;;;;13.61;67.29;93584.78;5090075;28;20451;-41
2022/07/15 00:13:44;;;;;;;3.28;1.77;;;;;;;13.52;67.89;93588.19;5089894;28;20445;-40
2022/07/15 00:16:09;;;;;;;2.80;1.77;;;;;;;13.43;67.63;93599.88;5089691;28;20020;-40
2022/07/15 00:18:35;;;;;;;2.05;1.85;;;;;;;13.36;67.74;93598.63;5089806;28;20020;-42
2022/07/15 00:21:00;;;;;;;2.17;1.60;;;;;;;13.36;67.81;93590.31;5089761;28;20500;-40
2022/07/15 00:23:26;;;;;;;1.77;1.67;;;;;;;13.44;67.56;93587.50;5092416;28;20056;-41
2022/07/15 00:25:52;;;;;;;3.40;2.05;;;;;;;13.49;67.29;93595.59;5106630;28;20038;-41
2022/07/15 00:28:17;;;;;;;1.85;1.75;;;;;;;13.67;66.34;93588.81;5109675;28;20031;-42
2022/07/15 00:30:43;;;;;;;1.50;1.40;;;;;;;13.72;65.64;93592.66;5100352;28;20432;-41
2022/07/15 00:33:09;;;;;;;3.17;1.58;;;;;;;13.71;65.45;93596.03;5089706;28;20047;-41
2022/07/15 00:35:36;;;;;;;1.70;1.38;;;;;;;13.39;66.27;93596.75;5089194;28;20417;-43
2022/07/15 00:38:03;;;;;;;2.08;1.40;;;;;;;13.36;67.00;93598.63;5109130;28;20050;-40
2022/07/15 00:40:28;;;;;;;2.03;1.70;;;;;;;13.53;66.45;93595.94;5113566;28;20039;-41
2022/07/15 00:42:54;;;;;;;5.53;1.77;;;;;;;13.57;66.77;93587.22;5112248;28;20118;-40
2022/07/15 00:45:22;;;;;;;2.13;1.75;;;;;;;13.49;67.05;93589.31;5093212;28;20416;-40
2022/07/15 00:47:53;;;;;;;3.37;2.10;;;;;;;13.45;67.43;93592.47;5093231;28;20031;-40
2022/07/15 00:50:20;;;;;;;7.13;2.03;;;;;;;13.33;67.20;93579.59;5094066;28;20505;-41
2022/07/15 00:52:50;;;;;;;1.73;1.60;;;;;;;13.12;67.19;93577.16;5093202;28;20107;-40
2022/07/15 00:55:16;;;;;;;1.70;1.60;;;;;;;13.02;67.26;93570.69;5095489;28;20063;-41
2022/07/15 00:57:45;;;;;;;3.22;1.77;;;;;;;12.98;67.58;93581.44;5112443;28;20164;-40
2022/07/15 01:00:11;;;;;;;;;;;;;;;12.93;67.65;93579.59;5113836;28;20027;-40
2022/07/15 01:02:38;;;;;;;2.35;1.80;;;;;;;13.00;67.29;93583.63;5111455;28;19907;-41
2022/07/15 01:05:05;;;;;;;9.77;1.63;;;;;;;12.91;67.60;93580.16;5107075;28;20030;-40
2022/07/15 01:07:32;;;;;;;2.13;1.70;;;;;;;12.94;67.73;93581.06;5094933;28;20062;-39
2022/07/15 01:09:58;;;;;;;2.08;1.83;;;;;;;12.89;67.92;93582.75;5092579;28;20039;-39
2022/07/15 01:12:23;;;;;;;1.60;1.38;;;;;;;12.71;68.59;93581.16;5092966;28;20020;-39
2022/07/15 01:14:49;;;;;;;1.73;1.63;;;;;;;12.58;69.16;93572.34;5092471;28;20511;-39
2022/07/15 01:17:16;;;;;;;2.35;1.90;;;;;;;12.56;69.24;93574.94;5092532;28;20134;-40
2022/07/15 01:19:41;;;;;;;1.65;1.55;;;;;;;12.63;68.80;93569.38;5092485;28;20023;-40
2022/07/15 01:22:07;;;;;;;1.85;1.73;;;;;;;12.82;68.59;93568.94;5100838;28;20024;-39
2022/07/15 01:24:33;;;;;;;2.45;1.55;;;;;;;12.80;68.15;93538.25;5112826;28;20091;-39
2022/07/15 01:27:00;;;;;;;2.85;1.80;;;;;;;12.86;67.49;93560.97;5112631;28;20100;-39
2022/07/15 01:29:26;;;;;;;1.67;1.58;;;;;;;12.90;67.64;93550.25;5111922;28;20028;-40
2022/07/15 01:31:52;;;;;;;1.60;1.40;;;;;;;13.03;66.43;93566.63;5112862;28;20026;-43
2022/07/15 01:34:18;;;;;;;1.75;1.63;;;;;;;13.01;66.44;93560.16;5112459;28;20416;-43
2022/07/15 01:36:43;;;;;;;2.08;1.98;;;;;;;12.86;67.15;93563.75;5107225;28;20020;-41
2022/07/15 01:39:09;;;;;;;2.10;2.00;;;;;;;12.85;66.76;93559.50;5106972;28;20093;-43
2022/07/15 01:41:34;;;;;;;2.08;1.65;;;;;;;12.76;67.11;93562.84;5099009;28;20606;-44
2022/07/15 01:43:59;;;;;;;4.88;2.00;;;;;;;12.59;67.84;93559.97;5100233;28;20152;-40
2022/07/15 01:46:25;;;;;;;1.63;1.48;;;;;;;12.40;68.80;93560.41;5099143;28;20439;-41
2022/07/15 01:51:34;;;;;;;3.50;1.70;;;;;;;12.16;69.64;93556.22;5105701;28;20092;-41
2022/07/15 01:53:59;;;;;;;2.33;1.85;;;;;;;12.13;69.61;93562.84;5112428;28;20428;-40
2022/07/15 01:56:25;;;;;;;2.45;1.80;;;;;;;12.13;69.93;93564.88;5111484;28;20103;-40
2022/07/15 01:58:50;;;;;;;3.00;1.90;;;;;;;12.04;70.11;93555.13;5111705;27;20020;-40
2022/07/15 02:01:17;;;;;;;1.88;1.77;;;;;;;12.16;69.63;93561.75;5111973;27;20085;-40
2022/07/15 02:03:44;;;;;;;2.78;1.88;;;;;;;12.25;68.66;93562.47;5112374;28;20456;-39
2022/07/15 02:06:09;;;;;;;1.70;1.35;;;;;;;12.21;68.83;93562.84;5111914;28;20024;-41
2022/07/15 02:08:35;;;;;;;1.83;1.73;;;;;;;12.08;69.17;93569.31;5112159;28;20020;-41
2022/07/15 02:11:00;;;;;;;4.18;1.58;;;;;;;12.14;69.07;93571.91;5111729;28;20467;-41
2022/07/15 02:13:26;;;;;;;3.80;1.70;;;;;;;12.17;68.72;93565.97;5111769;28;20036;-41
2022/07/15 02:15:51;;;;;;;1.90;1.70;;;;;;;12.36;68.43;93567.63;5111844;28;20027;-43
2022/07/15 02:18:17;;;;;;;1.63;1.52;;;;;;;12.15;68.95;93565.81;5103697;28;20069;-42
2022/07/15 02:20:42;;;;;;;2.38;1.52;;;;;;;12.19;69.09;93568.94;5091260;28;20024;-41
2022/07/15 02:23:08;;;;;;;2.35;2.15;;;;;;;12.13;69.33;93562.84;5091289;28;20024;-41
2022/07/15 02:25:34;;;;;;;1.77;1.67;;;;;;;12.02;69.26;93565.25;5091575;28;20031;-42
2022/07/15 02:28:03;;;;;;;2.85;1.83;;;;;;;12.07;69.43;93564.34;5091079;28;20028;-43
2022/07/15 02:30:31;;;;;;;3.13;1.73;;;;;;;12.17;69.29;93563.22;5106926;28;20625;-43
2022/07/15 02:32:57;;;;;;;3.70;1.70;;;;;;;12.11;69.57;93567.47;5111430;28;20042;-40
2022/07/15 02:35:23;;;;;;;3.97;1.90;;;;;;;12.22;69.46;93558.78;5111723;28;20445;-40
2022/07/15 02:37:49;;;;;;;4.47;2.22;;;;;;;12.25;69.34;93562.47;5096419;28;20057;-39
2022/07/15 02:40:15;;;;;;;1.90;1.58;;;;;;;12.35;68.78;93566.88;5091005;28;20031;-40
2022/07/15 02:42:47;;;;;;;2.22;1.83;;;;;;;12.42;68.21;93566.13;5090890;28;20024;-40
2022/07/15 02:45:13;;;;;;;2.60;2.20;;;;;;;12.35;68.35;93571.66;5091233;28;20028;-40
2022/07/15 02:47:38;;;;;;;2.05;1.77;;;;;;;12.22;69.46;93569.09;5090768;28;20020;-40
2022/07/15 02:50:05;;;;;;;1.90;1.73;;;;;;;12.09;69.17;93567.28;5090706;28;20024;-41
2022/07/15 02:52:30;;;;;;;1.92;1.67;;;;;;;11.95;69.21;93561.22;5090789;28;20020;-41
2022/07/15 02:54:56;;;;;;;4.15;1.90;;;;;;;12.06;68.81;93552.53;5090575;28;20026;-40
2022/07/15 02:57:21;;;;;;;2.25;1.92;;;;;;;12.11;68.00;93559.91;5090970;28;20027;-40
2022/07/15 02:59:47;;;;;;;2.30;2.05;;;;;;;11.70;69.64;93562.34;5089270;28;20039;-41
2022/07/15 03:02:12;;;;;;;2.78;2.45;;;;;;;11.69;70.03;93558.84;5090865;28;20020;-41
2022/07/15 03:04:38;;;;;;;2.67;1.98;;;;;;;11.62;70.51;93554.03;5090560;28;20024;-41
2022/07/15 03:07:03;;;;;;;2.13;1.95;;;;;;;11.77;70.66;93556.06;5093042;28;20164;-42
2022/07/15 03:09:29;;;;;;;5.35;2.30;;;;;;;11.69;70.63;93556.09;5109435;28;20058;-42
2022/07/15 03:11:54;;;;;;;3.72;2.88;;;;;;;11.54;71.00;93558.06;5111104;28;20026;-41
2022/07/15 03:14:19;;;;;;;2.42;2.22;;;;;;;11.45;70.91;93559.34;5110988;28;20048;-41
2022/07/15 03:16:46;;;;;;;4.88;2.47;;;;;;;11.39;71.10;93559.53;5104282;27;20016;-41
2022/07/15 03:19:11;;;;;;;3.42;2.92;;;;;;;11.41;70.66;93562.47;5099140;28;20016;-42
2022/07/15 03:21:37;;;;;;;3.90;3.15;;;;;;;11.60;70.26;93564.16;5099687;28;20020;-42
2022/07/15 03:24:03;;;;;;;3.17;2.88;;;;;;;11.37;71.22;93562.09;5099091;28;20099;-42
2022/07/15 03:26:29;;;;;;;2.40;2.20;;;;;;;11.17;71.29;93537.41;5101160;28;20093;-41
2022/07/15 03:28:54;;;;;;;5.03;2.17;;;;;;;11.22;71.71;93550.28;5100347;28;20588;-41
2022/07/15 03:31:21;;;;;;;2.40;2.03;;;;;;;11.30;71.32;93548.28;5100884;28;20407;-41
2022/07/15 03:33:46;;;;;;;2.35;1.70;;;;;;;11.28;71.44;93548.09;5100871;28;20016;-42
2022/07/15 03:36:12;;;;;;;2.97;2.75;;;;;;;11.26;71.86;93547.91;5098442;28;20523;-41
2022/07/15 03:38:37;;;;;;;2.00;1.75;;;;;;;11.33;71.77;93550.69;5101629;28;20040;-42
2022/07/15 03:41:03;;;;;;;3.22;2.25;;;;;;;11.38;71.49;93552.53;5099728;28;20027;-42
2022/07/15 03:43:30;;;;;;;2.20;1.95;;;;;;;11.38;71.62;93560.81;5102949;28;20034;-41
2022/07/15 03:45:55;;;;;;;4.20;1.85;;;;;;;11.54;71.83;93547.75;5099218;28;20012;-42
2022/07/15 03:48:21;;;;;;;2.47;2.28;;;;;;;11.78;70.71;93541.69;5103204;28;20024;-43
2022/07/15 03:50:47;;;;;;;1.80;1.67;;;;;;;11.92;70.22;93539.47;5099055;28;20506;-42
2022/07/15 03:53:13;;;;;;;7.03;1.92;;;;;;;11.87;70.33;93543.13;5106016;28;20022;-42
2022/07/15 03:55:38;;;;;;;2.65;1.85;;;;;;;12.04;70.62;93551.63;5110577;28;20540;-42
2022/07/15 03:58:05;;;;;;;2.13;1.83;;;;;;;12.10;70.03;93549.41;5110668;28;20047;-42
2022/07/15 04:00:30;;;;;;;2.00;1.80;;;;;;;11.95;70.22;93541.84;5109964;28;20099;-42
2022/07/15 04:02:56;;;;;;;3.15;2.85;;;;;;;11.92;71.01;93537.44;5110144;28;20023;-43
2022/07/15 04:05:21;;;;;;;6.32;2.60;;;;;;;11.93;71.05;93538.19;5110548;28;20030;-42
2022/07/15 04:07:48;;;;;;;5.90;2.85;;;;;;;11.83;71.32;93537.25;5110157;28;20023;-42
2022/07/15 04:10:14;;;;;;;2.97;2.60;;;;;;;12.09;71.10;93537.59;5110624;28;20020;-42
2022/07/15 04:12:41;;;;;;;4.03;2.58;;;;;;;11.99;71.86;93533.94;5112937;28;20023;-43
2022/07/15 04:15:07;;;;;;;2.92;2.55;;;;;;;12.27;70.77;93543.25;5101372;28;20028;-42
2022/07/15 04:17:33;;;;;;;4.15;2.38;;;;;;;12.34;71.03;93539.75;5094020;28;20039;-43
2022/07/15 04:19:58;;;;;;;2.90;2.47;;;;;;;12.52;70.43;93544.84;5099857;28;20488;-44
2022/07/15 04:22:23;;;;;;;2.40;2.20;;;;;;;12.50;71.43;93541.16;5114062;28;20023;-45
2022/07/15 04:24:49;;;;;;;3.55;1.75;;;;;;;12.55;71.26;93546.50;5113802;28;20092;-44
2022/07/15 04:27:15;;;;;;;4.03;2.40;;;;;;;12.65;71.00;93539.06;5114197;28;20024;-44
2022/07/15 04:29:41;;;;;;;2.25;1.90;;;;;;;12.77;70.96;93539.41;5104594;28;20030;-44
2022/07/15 04:32:06;;;;;;;2.22;2.03;;;;;;;12.68;71.35;93537.22;5093442;28;20027;-44
2022/07/15 04:34:32;;;;;;;7.38;4.63;;;;;;;12.52;72.19;93542.09;5093722;28;20055;-44
2022/07/15 04:36:57;;;;;;;7.60;6.13;;;;;;;12.81;71.50;93539.75;5093175;28;20123;-44
2022/07/15 04:39:22;;;;;;;8.20;5.10;;;;;;;12.96;71.32;93539.69;5093191;28;20461;-44
2022/07/15 04:41:51;;;;;;;13.90;5.57;;;;;;;13.12;71.09;93537.59;5098560;28;20537;-44
2022/07/15 04:44:17;;;;;;;11.80;5.85;;;;;;;13.27;70.82;93540.28;5113483;27;20482;-44
2022/07/15 04:46:42;;;;;;;10.65;6.47;;;;;;;13.37;70.85;93541.13;5113551;28;20038;-45
2022/07/15 04:51:52;;;;;;;4.78;3.55;;;;;;;13.53;70.72;93548.78;5113755;28;20183;-43
2022/07/15 04:54:17;;;;;;;10.18;3.55;;;;;;;13.50;70.57;93543.63;5113703;28;20136;-42
2022/07/15 04:56:43;;;;;;;20.15;7.70;;;;;;;13.48;71.05;93540.69;5112304;28;20031;-42
2022/07/15 04:59:08;;;;;;;33.92;11.18;;;;;;;13.62;70.93;93548.16;5113603;28;20015;-43
2022/07/15 05:01:34;;;;;;;28.88;10.80;;;;;;;13.79;70.98;93547.47;5113647;28;20016;-43
2022/07/15 05:04:00;;;;;;;25.40;11.07;;;;;;;13.81;70.62;93546.91;5113232;28;20504;-42
2022/07/15 05:06:25;;;;;;;22.73;10.45;;;;;;;13.91;71.63;93545.69;5109941;28;20023;-43
2022/07/15 05:08:50;;;;;;;25.65;10.93;;;;;;;14.03;71.89;93552.28;5093991;28;20027;-43
2022/07/15 05:11:16;;;;;;;25.42;11.13;;;;;;;14.16;71.63;93540.84;5104681;28;20031;-43
2022/07/15 05:13:42;;;;;;;19.88;9.27;;;;;;;14.28;71.60;93541.09;5102658;28;20031;-45
2022/07/15 05:16:08;;;;;;;16.65;8.55;;;;;;;14.36;72.08;93550.84;5092543;28;20405;-44
2022/07/15 05:18:33;;;;;;;14.30;8.18;;;;;;;14.49;72.14;93549.78;5092547;28;20020;-43
2022/07/15 05:20:59;;;;;;;13.40;7.40;;;;;;;14.60;71.52;93540.97;5092319;28;20027;-43
2022/07/15 05:23:24;;;;;;;26.33;14.93;;;;;;;14.74;70.46;93549.72;5092617;28;20089;-45
2022/07/15 05:25:50;;;;;;;25.25;11.90;;;;;;;14.77;70.09;93545.78;5101281;28;20393;-45
2022/07/15 05:28:16;;;;;;;23.75;11.18;;;;;;;14.91;71.52;93539.31;5112695;28;20413;-42
2022/07/15 05:30:41;;;;;;;18.65;7.38;;;;;;;14.99;69.64;93539.94;5109810;28;20386;-41
2022/07/15 05:33:07;;;;;;;12.20;6.95;;;;;;;15.06;68.69;93553.03;5112845;28;20099;-42
2022/07/15 05:35:32;;;;;;;13.80;5.22;;;;;;;15.13;66.09;93552.19;5112883;28;20504;-42
2022/07/15 05:37:58;;;;;;;12.15;5.60;;;;;;;15.14;65.12;93534.19;5096399;28;20054;-42
2022/07/15 05:40:23;;;;;;;13.00;7.00;;;;;;;15.33;66.60;93544.69;5092123;28;20107;-41
2022/07/15 05:42:49;;;;;;;12.02;7.10;;;;;;;15.43;65.12;93547.50;5092236;28;20020;-41
2022/07/15 05:45:14;;;;;;;13.13;7.68;;;;;;;15.56;66.27;93544.38;5092278;28;20481;-41
2022/07/15 05:47:46;;;;;;;12.52;6.43;;;;;;;15.69;66.24;93541.94;5092187;28;20382;-41
2022/07/15 05:50:12;;;;;;;12.32;5.55;;;;;;;15.80;66.20;93535.84;5092058;28;20448;-45
2022/07/15 05:52:37;;;;;;;8.95;5.50;;;;;;;15.79;66.71;93541.97;5107770;28;20030;-44
2022/07/15 05:55:04;;;;;;;6.97;4.05;;;;;;;16.03;64.88;93543.06;5112054;28;20026;-43
2022/07/15 05:57:29;;;;;;;8.05;4.75;;;;;;;16.13;65.57;93547.38;5112422;28;20031;-42
2022/07/15 05:59:55;;;;;;;7.82;4.82;;;;;;;16.34;65.03;93547.56;5112083;28;20073;-43
2022/07/15 06:02:20;;;;;;;6.00;3.03;;;;;;;16.48;62.69;93542.28;5111991;28;20035;-43
2022/07/15 06:04:46;;;;;;;5.10;3.20;;;;;;;16.55;63.37;93544.97;5111954;28;20026;-46
2022/07/15 06:07:11;;;;;;;7.60;2.70;;;;;;;16.53;63.34;93544.06;5111757;28;20052;-43
2022/07/15 06:09:37;;;;;;;5.82;2.40;;;;;;;16.60;63.49;93537.63;5111911;28;20080;-42
2022/07/15 06:12:03;;;;;;;6.57;2.63;;;;;;;16.60;63.55;93534.84;5111487;28;20048;-43
2022/07/15 06:14:28;;;;;;;4.75;2.13;;;;;;;16.79;63.30;93532.06;5111019;28;20031;-43
2022/07/15 06:16:53;;;;;;;3.33;2.80;;;;;;;17.11;63.28;93539.19;5112047;28;20030;-43
2022/07/15 06:19:19;;;;;;;5.13;3.35;;;;;;;17.33;61.72;93543.56;5102742;28;20016;-43
2022/07/15 06:21:44;;;;;;;4.38;2.88;;;;;;;17.48;61.11;93536.94;5088937;28;20258;-43
2022/07/15 06:24:10;;;;;;;4.32;1.85;;;;;;;17.51;59.08;93541.34;5088791;28;20024;-43
2022/07/15 06:26:35;;;;;;;4.93;2.13;;;;;;;17.53;59.92;93538.69;5088862;28;20024;-41
2022/07/15 06:29:01;;;;;;;2.80;2.05;;;;;;;17.69;57.97;93540.56;5092207;28;20024;-41
2022/07/15 06:31:26;;;;;;;4.85;1.90;;;;;;;17.88;57.66;93534.16;5109658;28;20027;-42
2022/07/15 06:33:52;;;;;;;5.10;2.00;;;;;;;18.04;56.42;93538.78;5106791;28;20084;-42
2022/07/15 06:36:17;;;;;;;3.47;2.17;;;;;;;18.24;56.14;93538.69;5102757;28;20477;-42
2022/07/15 06:38:42;;;;;;;2.13;1.88;;;;;;;18.38;56.34;93536.84;5099842;28;20704;-43
2022/07/15 06:41:08;;;;;;;5.60;2.85;;;;;;;18.37;56.47;93538.16;5101010;28;20451;-44
2022/07/15 06:43:33;;;;;;;2.70;2.10;;;;;;;18.42;56.92;93539.91;5099302;28;20035;-42
2022/07/15 06:45:59;;;;;;;3.97;2.10;;;;;;;18.67;55.88;93535.34;5088460;28;20105;-42
2022/07/15 06:48:24;;;;;;;2.58;1.85;;;;;;;18.89;55.36;93541.63;5088343;28;20016;-42
2022/07/15 06:50:50;;;;;;;2.33;2.05;;;;;;;19.07;54.09;93533.69;5107724;28;20024;-42
2022/07/15 06:53:15;;;;;;;2.53;1.50;;;;;;;19.10;53.45;93538.09;5109035;28;20051;-42
2022/07/15 06:55:41;;;;;;;1.70;1.60;;;;;;;19.28;52.15;93528.78;5107593;28;20496;-42
2022/07/15 06:58:06;;;;;;;1.95;1.17;;;;;;;19.37;50.58;93522.38;5108830;28;20023;-42
2022/07/15 07:00:33;;;;;;;3.08;1.75;;;;;;;19.50;51.17;93529.47;5100550;28;20027;-41
2022/07/15 07:02:58;;;;;;;2.25;1.90;;;;;;;19.71;50.00;93525.84;5093488;28;20060;-41
2022/07/15 07:05:25;;;;;;;2.25;1.60;;;;;;;19.87;51.57;93515.63;5108866;28;20019;-42
2022/07/15 07:07:50;;;;;;;3.85;1.38;;;;;;;19.88;50.78;93517.09;5095125;28;20032;-42
2022/07/15 07:10:16;;;;;;;2.28;1.63;;;;;;;19.84;50.18;93528.06;5108013;28;20012;-41
2022/07/15 07:12:41;;;;;;;2.88;1.40;;;;;;;19.96;50.44;93523.91;5100078;28;20047;-42
2022/07/15 07:15:07;;;;;;;2.40;1.67;;;;;;;20.06;50.68;93532.19;5089743;28;20360;-42
2022/07/15 07:17:33;;;;;;;7.47;1.58;;;;;;;20.29;51.69;93530.13;5091399;28;20124;-42
2022/07/15 07:19:58;;;;;;;1.60;1.48;;;;;;;20.59;50.18;93519.97;5100374;28;20020;-43
2022/07/15 07:22:24;;;;;;;2.80;1.70;;;;;;;20.69;51.29;93523.34;5088568;28;20034;-41
2022/07/15 07:24:49;;;;;;;2.25;1.50;;;;;;;21.00;50.62;93523.03;5105550;28;20539;-42
2022/07/15 07:27:15;;;;;;;1.98;1.70;;;;;;;21.04;49.68;93523.28;5093413;28;20015;-41
2022/07/15 07:29:40;;;;;;;2.33;1.40;;;;;;;21.27;48.04;93520.34;5108589;28;20059;-42
2022/07/15 07:32:06;;;;;;;6.45;2.13;;;;;;;21.75;49.36;93519.47;5107478;28;20416;-42
2022/07/15 07:34:32;;;;;;;2.65;1.30;;;;;;;22.28;47.50;93518.13;5089174;28;20032;-42
2022/07/15 07:36:58;;;;;;;4.57;2.22;;;;;;;23.11;44.64;93519.47;5087023;28;20644;-42
2022/07/15 07:39:23;;;;;;;3.03;1.50;;;;;;;24.02;41.25;93516.06;5086554;28;20055;-42
2022/07/15 07:41:53;;;;;;;1.40;1.30;;;;;;;24.83;41.24;93523.22;5087407;28;20489;-41
2022/07/15 07:44:19;;;;;;;2.60;1.30;;;;;;;26.21;37.96;93513.19;5088359;28;20373;-42
2022/07/15 07:46:44;;;;;;;1.45;1.35;;;;;;;27.73;34.57;93512.09;5090321;28;20106;-43
2022/07/15 07:49:12;;;;;;;1.77;1.00;;;;;;;28.86;32.69;93517.56;5090009;28;20429;-43
2022/07/15 07:51:40;;;;;;;2.80;1.00;;;;;;;29.12;31.85;93512.59;5090169;28;20051;-43
2022/07/15 07:54:06;;;;;;;2.55;0.82;;;;;;;29.42;31.58;93512.66;5092745;28;20429;-42
2022/07/15 07:56:31;;;;;;;1.45;0.80;;;;;;;29.62;31.34;93508.19;5111346;28;20069;-44
2022/07/15 07:58:57;;;;;;;0.80;0.80;;;;;;;29.53;31.34;93517.94;5110734;28;20024;-43
2022/07/15 08:01:22;;;;;;;1.80;1.10;;;;;;;29.30;32.72;93512.34;5110021;28;20027;-43
2022/07/15 08:03:50;;;;;;;2.75;0.88;;;;;;;29.33;32.08;93511.00;5112903;28;20024;-43
2022/07/15 08:06:15;;;;;;;2.28;0.88;;;;;;;29.46;33.38;93507.78;5112756;28;20027;-43
2022/07/15 08:08:41;;;;;;;1.35;0.73;;;;;;;29.70;31.17;93505.53;5113537;27;20080;-43
2022/07/15 08:11:07;;;;;;;1.77;1.00;;;;;;;30.10;29.77;93505.78;5107822;28;20027;-43
2022/07/15 08:13:32;;;;;;;3.83;0.80;;;;;;;30.73;29.56;93501.41;5099939;28;20023;-44
2022/07/15 08:15:58;;;;;;;1.10;0.90;;;;;;;30.45;29.38;93507.25;5099923;28;20453;-43
2022/07/15 08:18:25;;;;;;;2.08;1.10;;;;;;;30.80;29.40;93506.53;5093961;28;20044;-42
2022/07/15 08:20:51;;;;;;;0.90;0.90;;;;;;;30.63;29.00;93504.75;5095517;28;20024;-43
2022/07/15 08:23:20;;;;;;;2.00;0.90;;;;;;;31.21;27.37;93505.91;5103023;27;20090;-42
2022/07/15 08:25:47;;;;;;;2.38;0.88;;;;;;;31.04;27.42;93512.72;5100382;28;20041;-43
2022/07/15 08:28:13;;;;;;;1.17;0.85;;;;;;;32.17;27.49;93497.50;5092210;28;20489;-43
2022/07/15 08:30:39;;;;;;;2.35;0.80;;;;;;;33.36;26.26;93499.69;5110733;28;20072;-43
2022/07/15 08:33:04;;;;;;;0.85;0.70;;;;;;;34.11;24.33;93500.34;5114008;28;20072;-43
2022/07/15 08:35:30;;;;;;;2.25;0.68;;;;;;;34.00;22.50;93488.06;5113793;28;20028;-43
2022/07/15 08:37:56;;;;;;;0.90;0.70;;;;;;;33.58;22.71;93504.91;5109013;28;20138;-42
2022/07/15 08:40:23;;;;;;;0.95;0.70;;;;;;;34.24;23.44;93505.44;5114018;28;20462;-43
2022/07/15 08:42:49;;;;;;;1.13;0.75;;;;;;;34.54;23.17;93504.94;5107061;28;20055;-42
2022/07/15 08:45:16;;;;;;;3.78;1.00;;;;;;;33.98;23.40;93510.97;5096325;28;20055;-43
2022/07/15 08:47:44;;;;;;;0.90;0.73;;;;;;;34.40;21.57;93507.69;5093166;28;20020;-43
2022/07/15 08:50:14;;;;;;;1.40;1.10;;;;;;;34.03;22.45;93508.88;5104319;28;20400;-43
2022/07/15 08:52:40;;;;;;;1.35;0.90;;;;;;;33.45;23.11;93512.66;5093336;28;20111;-43
2022/07/15 08:55:07;;;;;;;1.20;1.10;;;;;;;34.03;22.94;93508.88;5095308;28;20070;-43
2022/07/15 08:57:33;;;;;;;1.00;0.95;;;;;;;34.81;21.94;93492.13;5105045;28;20016;-43
2022/07/15 08:59:59;;;;;;;1.00;1.00;;;;;;;35.65;22.05;93497.41;5092876;28;20559;-43
2022/07/15 09:02:24;;;;;;;3.53;1.05;;;;;;;36.35;20.13;93490.19;5092859;28;20028;-43
2022/07/15 09:05:21;;;;;;;1.05;0.90;;;;;;;36.96;20.76;93488.59;5095621;28;20073;-44
2022/07/15 09:07:59;;;;;;;2.93;1.10;;;;;;;37.01;20.40;93498.66;5106428;28;20070;-43
2022/07/15 09:10:39;;;;;;;8.82;2.10;;;;;;;37.14;20.46;93497.13;5104300;28;20497;-43
2022/07/15 09:13:05;;;;;;;0.90;0.77;;;;;;;37.16;20.63;93490.66;5092910;28;20031;-43
2022/07/15 09:15:38;;;;;;;1.10;1.00;;;;;;;37.59;20.34;93491.16;5091469;28;20071;-43
2022/07/15 09:18:10;;;;;;;1.40;1.20;;;;;;;37.80;18.76;93486.69;5092557;28;20039;-43
2022/07/15 09:20:37;;;;;;;1.63;0.98;;;;;;;38.20;19.86;93486.34;5096840;28;20596;-43
2022/07/15 09:23:03;;;;;;;3.28;1.42;;;;;;;37.25;20.21;93483.41;5099635;28;20063;-42
2022/07/15 09:25:33;;;;;;;3.10;1.10;;;;;;;37.32;21.07;93475.47;5099330;28;20432;-41
2022/07/15 09:28:01;;;;;;;3.00;1.50;;;;;;;36.45;19.37;93479.41;5096628;28;20077;-43
2022/07/15 09:33:37;;;;;;;1.23;1.13;;;;;;;35.98;21.22;93472.28;5107582;28;20046;-43
2022/07/15 09:36:05;;;;;;;3.25;1.20;;;;;;;36.30;20.74;93474.41;5105606;28;20027;-42
2022/07/15 09:38:40;;;;;;;1.70;1.30;;;;;;;35.98;19.93;93483.78;5100255;28;20051;-43
2022/07/15 09:41:07;;;;;;;1.45;1.35;;;;;;;36.21;20.71;93476.56;5111395;28;20028;-44
2022/07/15 09:43:44;;;;;;;1.90;1.58;;;;;;;36.41;19.52;93478.66;5111069;28;20038;-44
2022/07/15 09:46:09;;;;;;;1.30;1.20;;;;;;;35.65;19.64;93471.53;5111840;28;20035;-44
2022/07/15 09:48:40;;;;;;;1.75;1.30;;;;;;;35.23;20.50;93477.22;5096847;28;20085;-44
2022/07/15 09:51:05;;;;;;;1.40;1.13;;;;;;;35.85;21.74;93478.72;5105221;28;20031;-45
2022/07/15 09:53:32;;;;;;;1.50;1.40;;;;;;;36.12;20.59;93469.41;5108098;28;20415;-42
2022/07/15 09:55:58;;;;;;;2.05;1.52;;;;;;;35.91;21.87;93476.56;5109813;28;20114;-44
2022/07/15 09:58:25;;;;;;;1.58;1.25;;;;;;;36.55;21.35;93472.91;5112425;28;20027;-44
2022/07/15 10:00:52;;;;;;;2.30;1.88;;;;;;;36.77;20.93;93466.34;5111368;28;20060;-43
2022/07/15 10:03:19;;;;;;;2.13;1.60;;;;;;;36.79;19.16;93466.34;5100851;28;20416;-43
2022/07/15 10:05:46;;;;;;;1.90;1.50;;;;;;;36.28;18.72;93466.47;5097636;28;20032;-42
2022/07/15 10:08:14;;;;;;;2.53;1.40;;;;;;;36.23;20.05;93459.31;5099197;28;20031;-42
2022/07/15 10:10:39;;;;;;;4.55;1.42;;;;;;;36.45;21.36;93462.16;5103028;28;20023;-41
2022/07/15 10:13:28;;;;;;;4.55;1.70;;;;;;;36.40;20.55;93465.75;5101154;28;20024;-42
2022/07/15 10:16:27;;;;;;;5.07;1.65;;;;;;;36.01;19.80;93470.13;5103792;28;20074;-43
2022/07/15 10:19:20;;;;;;;1.70;1.60;;;;;;;35.84;20.95;93465.81;5112065;27;20054;-44
2022/07/15 10:22:28;;;;;;;1.95;1.30;;;;;;;36.25;21.56;93467.22;5111858;28;20112;-43
2022/07/15 10:24:56;;;;;;;4.95;1.25;;;;;;;36.19;21.02;93459.31;5111902;28;20031;-43
2022/07/15 10:27:57;;;;;;;3.85;1.50;;;;;;;36.28;20.82;93465.75;5111898;28;20039;-44
2022/07/15 10:30:24;;;;;;;2.85;1.30;;;;;;;36.38;22.23;93457.13;5078768;28;20039;-43
2022/07/15 10:33:13;;;;;;;1.83;1.35;;;;;;;36.32;18.90;93457.84;5099315;28;20131;-43
2022/07/15 10:35:47;;;;;;;4.70;1.60;;;;;;;35.92;21.67;93457.16;5099837;28;20024;-45
2022/07/15 10:38:29;;;;;;;2.92;1.52;;;;;;;36.14;22.06;93451.41;5099734;28;20054;-42
2022/07/15 10:41:05;;;;;;;1.73;1.35;;;;;;;36.08;22.13;93451.44;5099467;28;20023;-43
2022/07/15 10:43:45;;;;;;;1.73;1.10;;;;;;;36.23;21.50;93453.56;5100897;28;20427;-44
2022/07/15 10:46:16;;;;;;;3.33;1.13;;;;;;;36.19;23.73;93452.88;5098428;28;20028;-43
2022/07/15 10:48:46;;;;;;;1.85;1.38;;;;;;;36.43;21.50;93444.16;5102264;28;20027;-43
2022/07/15 10:51:12;;;;;;;3.67;1.38;;;;;;;36.49;21.40;93441.28;5099822;28;20026;-44
2022/07/15 10:53:46;;;;;;;7.03;1.80;;;;;;;35.89;21.04;93441.38;5100776;28;20055;-46
2022/07/15 10:56:34;;;;;;;3.58;1.30;;;;;;;35.73;21.55;93448.59;5098630;28;20027;-45
2022/07/15 10:59:11;;;;;;;1.48;1.33;;;;;;;35.51;23.33;93434.22;5099451;28;20015;-44
2022/07/15 11:01:38;;;;;;;1.80;1.37;;;;;;;35.62;22.13;93447.16;5099347;28;20039;-44
2022/07/15 11:04:19;;;;;;;4.45;1.70;;;;;;;35.28;20.75;93443.50;5102256;28;20161;-43
2022/07/15 11:07:11;;;;;;;7.95;1.65;;;;;;;35.22;21.62;93432.72;5100011;28;20058;-43
2022/07/15 11:10:03;;;;;;;1.30;1.20;;;;;;;35.18;23.42;93443.47;5099210;28;20101;-44
2022/07/15 11:12:28;;;;;;;4.93;1.42;;;;;;;34.70;23.94;93449.78;5099558;28;20047;-45
2022/07/15 11:14:57;;;;;;;3.20;1.02;;;;;;;33.71;24.37;93446.31;5099253;28;20042;-43
2022/07/15 11:17:29;;;;;;;1.15;1.08;;;;;;;32.77;26.04;93446.84;5100982;28;20114;-43
2022/07/15 11:19:56;;;;;;;3.15;1.30;;;;;;;32.27;28.86;93451.22;5101323;28;20023;-45
2022/07/15 11:22:24;;;;;;;2.85;1.67;;;;;;;32.53;27.37;93443.69;5098020;28;20027;-43
2022/07/15 11:24:50;;;;;;;1.30;1.20;;;;;;;32.79;24.83;93438.28;5100360;28;20100;-41
2022/07/15 11:27:15;;;;;;;1.15;1.05;;;;;;;33.04;26.79;93444.28;5099798;28;20497;-43
2022/07/15 11:29:49;;;;;;;1.45;1.35;;;;;;;33.29;26.87;93438.06;5098184;28;20476;-44
2022/07/15 11:32:17;;;;;;;1.55;1.42;;;;;;;33.49;25.84;93441.13;5098122;28;20023;-42
2022/07/15 11:34:49;;;;;;;2.53;1.25;;;;;;;33.63;23.32;93446.28;5101128;28;20416;-46
2022/07/15 11:37:18;;;;;;;3.40;1.10;;;;;;;33.55;24.79;93438.31;5101981;28;20024;-43
2022/07/15 11:39:49;;;;;;;4.15;1.30;;;;;;;33.36;23.47;93441.72;5097999;28;20134;-48
2022/07/15 11:45:06;;;;;;;7.20;1.25;;;;;;;33.39;24.46;93437.47;5101523;28;20535;-42